Time;durP1;ratioP1;P1;durP2;ratioP2;P2;SDS_P1;SDS_P2;PMS_P1;PMS_P2;Temp;Humidity;BMP_temperature;BMP_pressure;BME280_temperature;BME280_humidity;BME280_pressure;Samples;Min_cycle;Max_cycle;Signal;HPM_P1;HPM_P2
2022/08/11 00:01:59;;;;;;;3.85;2.15;;;;;;;;;;5122172;28;20205;-62
2022/08/11 00:04:34;;;;;;;3.08;2.10;;;;;;;;;;5121667;28;20247;-62
2022/08/11 00:07:02;;;;;;;3.65;1.90;;;;;;;;;;5121860;28;20204;-62
2022/08/11 00:09:34;;;;;;;4.00;2.00;;;;;;;;;;5121962;28;20225;-62
2022/08/11 00:12:12;;;;;;;2.72;1.60;;;;;;;;;;5121936;28;20208;-62
2022/08/11 00:14:40;;;;;;;2.03;1.85;;;;;;;;;;5121530;28;20247;-62
2022/08/11 00:17:09;;;;;;;2.00;1.60;;;;;;;;;;5121633;28;20295;-62
2022/08/11 00:19:40;;;;;;;2.90;1.80;;;;;;;;;;5121842;28;20215;-62
2022/08/11 00:22:29;;;;;;;1.90;1.80;;;;;;;;;;5121730;28;20210;-62
2022/08/11 00:24:59;;;;;;;1.95;1.70;;;;;;;;;;5111629;28;20230;-62
2022/08/11 00:27:33;;;;;;;3.03;2.10;;;;;;;;;;5100928;28;20216;-63
2022/08/11 00:30:01;;;;;;;1.67;1.58;;;;;;;;;;5100970;28;20203;-62
2022/08/11 00:32:30;;;;;;;2.65;1.67;;;;;;;;;;5100908;28;20211;-63
2022/08/11 00:34:58;;;;;;;2.63;1.60;;;;;;;;;;5100717;28;20228;-63
2022/08/11 00:37:48;;;;;;;1.70;1.60;;;;;;;;;;5116240;28;20201;-62
2022/08/11 00:40:23;;;;;;;4.17;2.00;;;;;;;;;;5121018;28;20207;-63
2022/08/11 00:43:00;;;;;;;1.93;1.77;;;;;;;;;;5121413;28;20201;-65
2022/08/11 00:45:31;;;;;;;3.60;1.70;;;;;;;;;;5121053;28;20632;-65
2022/08/11 00:48:02;;;;;;;2.07;1.90;;;;;;;;;;5112405;28;20290;-65
2022/08/11 00:50:37;;;;;;;2.73;2.40;;;;;;;;;;5120749;28;20325;-63
2022/08/11 00:53:29;;;;;;;4.90;1.98;;;;;;;;;;5120802;28;20575;-65
2022/08/11 00:56:16;;;;;;;2.38;2.17;;;;;;;;;;5120466;28;20205;-65
2022/08/11 00:59:11;;;;;;;2.55;2.20;;;;;;;;;;5120947;28;20224;-65
2022/08/11 01:02:09;;;;;;;4.13;2.40;;;;;;;;;;5120741;28;20712;-63
2022/08/11 01:04:55;;;;;;;5.88;2.60;;;;;;;;;;5120704;28;20227;-64
2022/08/11 01:07:43;;;;;;;2.53;2.33;;;;;;;;;;5120717;28;20575;-65
2022/08/11 01:10:43;;;;;;;2.50;2.30;;;;;;;;;;5120276;28;20259;-65
2022/08/11 01:13:15;;;;;;;2.17;2.05;;;;;;;;;;5120742;28;20227;-62
2022/08/11 01:16:02;;;;;;;2.30;2.10;;;;;;;;;;5114152;28;20654;-62
2022/08/11 01:18:49;;;;;;;2.40;2.20;;;;;;;;;;5113666;28;20211;-64
2022/08/11 01:21:35;;;;;;;8.50;2.72;;;;;;;;;;5120613;28;20206;-65
2022/08/11 01:24:18;;;;;;;2.25;1.95;;;;;;;;;;5113189;28;20228;-65
2022/08/11 01:27:01;;;;;;;2.83;2.50;;;;;;;;;;5066310;28;20220;-65
2022/08/11 01:30:02;;;;;;;5.63;2.50;;;;;;;;;;5099902;28;20205;-65
2022/08/11 01:32:45;;;;;;;2.80;2.17;;;;;;;;;;5099887;28;20206;-65
2022/08/11 01:35:30;;;;;;;4.67;2.10;;;;;;;;;;5099790;28;20239;-65
2022/08/11 01:38:16;;;;;;;3.80;2.30;;;;;;;;;;5116290;28;20288;-65
2022/08/11 01:40:52;;;;;;;2.37;2.17;;;;;;;;;;5119841;28;20226;-65
2022/08/11 01:46:43;;;;;;;3.30;2.10;;;;;;;;;;5118904;28;20209;-62
2022/08/11 01:49:16;;;;;;;3.70;2.30;;;;;;;;;;5117928;28;20245;-62
2022/08/11 01:52:11;;;;;;;2.73;2.50;;;;;;;;;;5118154;28;20214;-62
2022/08/11 01:54:43;;;;;;;3.97;2.40;;;;;;;;;;5117309;27;20230;-62
2022/08/11 01:57:26;;;;;;;5.30;2.63;;;;;;;;;;5117920;28;20204;-62
2022/08/11 01:59:56;;;;;;;3.17;2.87;;;;;;;;;;5118198;28;20209;-62
2022/08/11 02:05:19;;;;;;;5.33;2.57;;;;;;;;;;5119812;28;20202;-62
2022/08/11 02:07:52;;;;;;;5.13;2.63;;;;;;;;;;5119769;28;20219;-62
2022/08/11 02:13:24;;;;;;;3.77;2.53;;;;;;;;;;5119533;28;20264;-65
2022/08/11 02:16:09;;;;;;;3.33;2.80;;;;;;;;;;5119232;28;20311;-62
2022/08/11 02:24:17;;;;;;;3.10;2.60;;;;;;;;;;5117961;28;20226;-62
2022/08/11 02:26:48;;;;;;;3.57;2.70;;;;;;;;;;5098468;28;20239;-62
2022/08/11 02:29:19;;;;;;;2.40;2.07;;;;;;;;;;5098805;28;20672;-62
2022/08/11 02:35:01;;;;;;;2.70;2.50;;;;;;;;;;5108673;28;20232;-62
2022/08/11 02:37:36;;;;;;;2.67;2.23;;;;;;;;;;5115180;28;20203;-62
2022/08/11 02:40:10;;;;;;;4.87;2.70;;;;;;;;;;5098366;28;20239;-62
2022/08/11 02:42:42;;;;;;;6.77;2.53;;;;;;;;;;5098544;28;20211;-62
2022/08/11 02:45:19;;;;;;;2.97;2.63;;;;;;;;;;5098408;28;20571;-62
2022/08/11 02:50:37;;;;;;;4.40;3.27;;;;;;;;;;5098098;28;20251;-62
2022/08/11 02:53:08;;;;;;;2.63;2.30;;;;;;;;;;5098512;28;20669;-62
2022/08/11 02:55:39;;;;;;;2.77;2.13;;;;;;;;;;5097999;28;20227;-62
2022/08/11 02:58:30;;;;;;;2.10;2.00;;;;;;;;;;5098567;28;20215;-62
2022/08/11 03:01:05;;;;;;;2.30;2.20;;;;;;;;;;5098644;28;20211;-62
2022/08/11 03:03:38;;;;;;;3.67;2.03;;;;;;;;;;5097964;28;20255;-62
2022/08/11 03:06:09;;;;;;;2.63;2.40;;;;;;;;;;5098459;28;20233;-62
2022/08/11 03:08:50;;;;;;;3.37;2.10;;;;;;;;;;5097794;28;20274;-62
2022/08/11 03:17:13;;;;;;;3.77;2.40;;;;;;;;;;5109653;28;20226;-62
2022/08/11 03:19:46;;;;;;;3.10;2.50;;;;;;;;;;5118416;28;20284;-62
2022/08/11 03:22:20;;;;;;;4.97;2.20;;;;;;;;;;5118310;28;20666;-62
2022/08/11 03:24:58;;;;;;;4.83;2.47;;;;;;;;;;5110987;28;20732;-62
2022/08/11 03:27:35;;;;;;;2.33;2.10;;;;;;;;;;5097591;28;20248;-62
2022/08/11 03:30:11;;;;;;;4.23;2.50;;;;;;;;;;5097978;28;20211;-62
2022/08/11 03:34:00;;;;;;;2.60;2.30;;;;;;;;;;5097950;28;20232;-62
2022/08/11 03:35:36;;;;;;;4.90;2.57;;;;;;;;;;5097623;28;20263;-62
2022/08/11 03:38:08;;;;;;;2.57;2.30;;;;;;;;;;5116022;28;20207;-62
2022/08/11 03:43:37;;;;;;;2.37;2.17;;;;;;;;;;5118475;28;20270;-62
2022/08/11 03:46:22;;;;;;;4.80;2.30;;;;;;;;;;5118336;28;20265;-62
2022/08/11 03:48:56;;;;;;;2.53;2.13;;;;;;;;;;5114350;28;20653;-62
2022/08/11 03:51:27;;;;;;;2.63;2.23;;;;;;;;;;5117743;28;20281;-62
2022/08/11 03:54:20;;;;;;;2.43;2.23;;;;;;;;;;5117979;28;20234;-62
2022/08/11 03:57:21;;;;;;;4.53;2.20;;;;;;;;;;5117640;28;20264;-62
2022/08/11 04:00:07;;;;;;;3.93;2.10;;;;;;;;;;5118150;28;20247;-62
2022/08/11 04:02:54;;;;;;;2.30;1.90;;;;;;;;;;5108062;28;20569;-63
2022/08/11 04:05:46;;;;;;;3.17;2.10;;;;;;;;;;5117585;28;20680;-63
2022/08/11 04:08:30;;;;;;;2.80;2.00;;;;;;;;;;5060804;28;20204;-62
2022/08/11 04:11:19;;;;;;;8.03;2.43;;;;;;;;;;5117600;28;20210;-63
2022/08/11 04:16:52;;;;;;;4.53;2.57;;;;;;;;;;5117478;28;20265;-63
2022/08/11 04:19:49;;;;;;;2.20;2.07;;;;;;;;;;5120050;28;20663;-63
2022/08/11 04:22:41;;;;;;;3.40;2.37;;;;;;;;;;5121872;28;20232;-63
2022/08/11 04:25:15;;;;;;;3.83;2.40;;;;;;;;;;5104786;28;20227;-62
2022/08/11 04:28:13;;;;;;;4.40;2.10;;;;;;;;;;5121701;28;20219;-62
2022/08/11 04:31:02;;;;;;;2.37;2.13;;;;;;;;;;5058496;28;20209;-63
2022/08/11 04:33:48;;;;;;;2.70;2.20;;;;;;;;;;5117631;28;20237;-62
2022/08/11 04:39:34;;;;;;;5.43;2.17;;;;;;;;;;5100104;28;20230;-62
2022/08/11 04:45:20;;;;;;;5.17;2.30;;;;;;;;;;5121327;28;20268;-62
2022/08/11 05:02:50;;;;;;;2.60;2.30;;;;;;;;;;5121110;28;20236;-63
2022/08/11 05:05:31;;;;;;;4.50;2.00;;;;;;;;;;5120686;28;20232;-63
2022/08/11 05:08:18;;;;;;;2.23;2.03;;;;;;;;;;5121046;28;20204;-63
2022/08/11 05:11:08;;;;;;;4.57;2.47;;;;;;;;;;5120528;28;20268;-63
2022/08/11 05:36:35;;;;;;;2.20;1.93;;;;;;;;;;5120078;28;20262;-62
2022/08/11 05:56:19;;;;;;;10.97;2.20;;;;;;;;;;5118266;28;20241;-62
2022/08/11 05:58:49;;;;;;;6.43;2.40;;;;;;;;;;5117754;28;20631;-62
2022/08/11 06:01:22;;;;;;;3.77;2.20;;;;;;;;;;5117698;28;20617;-63
2022/08/11 06:06:40;;;;;;;3.63;2.00;;;;;;;;;;5117928;28;20657;-63
2022/08/11 06:09:14;;;;;;;5.53;2.10;;;;;;;;;;5118155;28;20244;-63
2022/08/11 06:11:43;;;;;;;2.17;2.00;;;;;;;;;;5118824;28;20662;-63
2022/08/11 06:14:12;;;;;;;4.83;2.00;;;;;;;;;;5119611;27;20237;-62
2022/08/11 06:16:41;;;;;;;5.30;2.00;;;;;;;;;;5118978;28;20632;-62
2022/08/11 06:19:11;;;;;;;4.63;1.93;;;;;;;;;;5118983;28;20220;-62
2022/08/11 06:21:44;;;;;;;5.53;2.03;;;;;;;;;;5119632;28;20240;-62
2022/08/11 06:24:13;;;;;;;3.97;1.87;;;;;;;;;;5117518;28;20253;-62
2022/08/11 06:26:41;;;;;;;3.10;2.20;;;;;;;;;;5098924;28;20241;-63
2022/08/11 06:29:31;;;;;;;2.27;1.70;;;;;;;;;;5098544;28;20300;-62
2022/08/11 06:32:05;;;;;;;2.17;1.87;;;;;;;;;;5098657;28;20212;-62
2022/08/11 06:34:39;;;;;;;6.03;2.10;;;;;;;;;;5098545;28;20282;-62
2022/08/11 06:37:17;;;;;;;5.83;2.07;;;;;;;;;;5108631;28;20249;-63
2022/08/11 06:39:49;;;;;;;7.37;2.00;;;;;;;;;;5118774;28;20628;-63
2022/08/11 06:42:31;;;;;;;3.10;2.50;;;;;;;;;;5118817;28;20207;-62
2022/08/11 06:45:05;;;;;;;5.57;2.40;;;;;;;;;;5118791;28;20303;-63
2022/08/11 06:47:34;;;;;;;5.10;2.10;;;;;;;;;;5119017;28;20199;-63
2022/08/11 06:52:54;;;;;;;6.63;2.60;;;;;;;;;;5118695;28;20623;-63
2022/08/11 07:01:14;;;;;;;2.83;1.90;;;;;;;;;;5119254;28;20571;-62
2022/08/11 07:03:44;;;;;;;3.07;1.80;;;;;;;;;;5118669;28;20221;-63
2022/08/11 07:06:31;;;;;;;8.07;2.53;;;;;;;;;;5118593;28;20259;-63
2022/08/11 07:15:44;;;;;;;6.00;2.30;;;;;;;;;;5118701;28;20265;-63
2022/08/11 07:30:22;;;;;;;4.10;2.00;;;;;;;;;;5097702;28;20208;-63
2022/08/11 07:32:51;;;;;;;6.78;2.40;;;;;;;;;;5097447;28;20211;-63
2022/08/11 07:35:21;;;;;;;6.10;2.20;;;;;;;;;;5097998;28;20212;-63
2022/08/11 07:37:53;;;;;;;4.05;2.38;;;;;;;;;;5113615;28;20217;-63
2022/08/11 07:40:29;;;;;;;11.10;2.20;;;;;;;;;;5117868;28;20208;-63
2022/08/11 07:42:59;;;;;;;5.65;2.38;;;;;;;;;;5118054;28;20208;-63
2022/08/11 07:53:47;;;;;;;10.50;2.70;;;;;;;;;;5119705;28;20230;-63
2022/08/11 07:56:34;;;;;;;4.00;2.22;;;;;;;;;;5121975;28;20262;-63
2022/08/11 08:19:07;;;;;;;3.45;2.70;;;;;;;;;;5121910;28;20245;-63
2022/08/11 08:21:35;;;;;;;3.25;2.88;;;;;;;;;;5121620;28;20268;-64
2022/08/11 08:24:04;;;;;;;4.90;2.63;;;;;;;;;;5120801;28;20276;-63
2022/08/11 08:32:07;;;;;;;3.30;3.00;;;;;;;;;;5101325;28;20233;-63
2022/08/11 08:34:35;;;;;;;7.07;2.70;;;;;;;;;;5101529;28;20769;-63
2022/08/11 08:37:05;;;;;;;4.30;2.25;;;;;;;;;;5110449;28;20253;-63
2022/08/11 08:39:53;;;;;;;5.55;2.63;;;;;;;;;;5121483;28;20203;-63
2022/08/11 08:42:24;;;;;;;7.05;2.80;;;;;;;;;;5121239;27;20232;-63
2022/08/11 08:44:56;;;;;;;5.82;2.70;;;;;;;;;;5121146;28;20277;-63
2022/08/11 08:47:27;;;;;;;3.22;2.40;;;;;;;;;;5121046;28;20211;-64
2022/08/11 08:50:11;;;;;;;3.22;2.95;;;;;;;;;;5120821;28;20259;-63
2022/08/11 08:52:45;;;;;;;3.20;3.00;;;;;;;;;;5121339;28;20201;-63
2022/08/11 08:55:17;;;;;;;5.53;2.75;;;;;;;;;;5120952;28;20216;-63
2022/08/11 08:57:46;;;;;;;4.47;3.20;;;;;;;;;;5121164;28;20229;-63
2022/08/11 09:00:14;;;;;;;3.72;3.17;;;;;;;;;;5121076;28;20219;-63
2022/08/11 09:02:51;;;;;;;3.10;2.60;;;;;;;;;;5121014;28;20204;-63
2022/08/11 09:05:20;;;;;;;3.47;3.00;;;;;;;;;;5119382;28;20231;-63
2022/08/11 09:07:50;;;;;;;5.03;3.60;;;;;;;;;;5120929;28;20232;-63
2022/08/11 09:10:19;;;;;;;3.42;2.85;;;;;;;;;;5120366;28;20251;-63
2022/08/11 09:12:48;;;;;;;4.80;2.92;;;;;;;;;;5120727;28;20205;-63
2022/08/11 09:15:18;;;;;;;5.88;3.13;;;;;;;;;;5120566;28;20204;-63
2022/08/11 09:17:47;;;;;;;6.22;3.42;;;;;;;;;;5120475;28;20246;-63
2022/08/11 09:20:18;;;;;;;3.33;2.90;;;;;;;;;;5120852;28;20205;-63
2022/08/11 09:28:39;;;;;;;4.68;3.08;;;;;;;;;;5099911;28;20630;-63
2022/08/11 09:31:09;;;;;;;3.05;2.83;;;;;;;;;;5099764;28;20342;-63
2022/08/11 09:33:37;;;;;;;3.65;2.85;;;;;;;;;;5099044;28;20221;-63
2022/08/11 09:41:40;;;;;;;3.20;2.90;;;;;;;;;;5076594;28;20212;-64
2022/08/11 09:47:21;;;;;;;5.80;2.95;;;;;;;;;;5099645;28;20254;-63
2022/08/11 09:49:52;;;;;;;3.80;3.00;;;;;;;;;;5099191;28;20265;-63
2022/08/11 09:52:22;;;;;;;4.72;3.22;;;;;;;;;;5099059;28;20703;-63
2022/08/11 09:54:50;;;;;;;3.15;2.92;;;;;;;;;;5099087;28;20225;-63
2022/08/11 10:00:07;;;;;;;5.38;3.17;;;;;;;;;;5099119;28;20653;-63
2022/08/11 10:02:44;;;;;;;3.30;3.00;;;;;;;;;;5099543;28;20310;-63
2022/08/11 10:08:02;;;;;;;3.85;3.35;;;;;;;;;;5097226;28;20240;-63
2022/08/11 10:10:34;;;;;;;5.15;2.78;;;;;;;;;;5096920;28;20268;-63
2022/08/11 10:13:03;;;;;;;3.50;3.20;;;;;;;;;;5097289;28;20288;-63
2022/08/11 10:15:53;;;;;;;4.47;3.22;;;;;;;;;;5096859;28;20207;-63
2022/08/11 10:18:48;;;;;;;3.70;3.30;;;;;;;;;;5106961;28;20273;-64
2022/08/11 10:21:23;;;;;;;2.75;2.60;;;;;;;;;;5119467;28;20286;-63
2022/08/11 10:26:53;;;;;;;3.33;2.97;;;;;;;;;;5107120;28;20200;-64
2022/08/11 10:35:00;;;;;;;4.78;3.05;;;;;;;;;;5118964;28;20634;-64
2022/08/11 10:37:33;;;;;;;5.30;2.60;;;;;;;;;;5115378;28;20227;-64
2022/08/11 10:40:23;;;;;;;3.75;2.80;;;;;;;;;;5098411;28;20283;-63
2022/08/11 10:43:05;;;;;;;3.05;2.70;;;;;;;;;;5098672;28;20268;-63
2022/08/11 10:48:21;;;;;;;4.70;3.10;;;;;;;;;;5098450;28;20228;-63
2022/08/11 10:59:09;;;;;;;2.60;2.40;;;;;;;;;;5118753;28;20657;-64
2022/08/11 11:01:39;;;;;;;4.40;2.60;;;;;;;;;;5118507;28;20240;-64
2022/08/11 11:04:10;;;;;;;3.25;2.80;;;;;;;;;;5118986;28;20315;-64
2022/08/11 11:06:46;;;;;;;3.67;3.20;;;;;;;;;;5118898;28;20200;-63
2022/08/11 11:09:16;;;;;;;3.47;2.63;;;;;;;;;;5118481;28;20239;-63
2022/08/11 11:20:17;;;;;;;4.78;2.63;;;;;;;;;;5107101;28;20232;-63
2022/08/11 11:23:06;;;;;;;4.28;2.53;;;;;;;;;;5118409;28;20243;-63
2022/08/11 11:26:05;;;;;;;3.20;2.90;;;;;;;;;;5105151;28;20220;-64
2022/08/11 11:28:44;;;;;;;2.50;2.30;;;;;;;;;;5097339;28;20210;-63
2022/08/11 11:31:15;;;;;;;3.00;2.80;;;;;;;;;;5098060;28;20208;-63
2022/08/11 11:33:54;;;;;;;4.15;2.55;;;;;;;;;;5097707;28;20240;-63
2022/08/11 11:36:44;;;;;;;3.35;3.05;;;;;;;;;;5103708;28;20671;-63
2022/08/11 11:39:13;;;;;;;2.75;2.55;;;;;;;;;;5117724;28;20224;-64
2022/08/11 11:41:41;;;;;;;2.83;2.63;;;;;;;;;;5118165;28;20212;-63
2022/08/11 11:44:11;;;;;;;4.35;2.70;;;;;;;;;;5117921;28;20628;-63
2022/08/11 11:46:40;;;;;;;2.72;2.30;;;;;;;;;;5117947;28;20272;-63
2022/08/11 11:49:08;;;;;;;3.15;2.85;;;;;;;;;;5118188;28;20227;-64
2022/08/11 11:51:44;;;;;;;3.40;3.00;;;;;;;;;;5117955;28;20255;-63
2022/08/11 11:54:17;;;;;;;3.13;2.55;;;;;;;;;;5117642;28;20228;-63
2022/08/11 11:56:45;;;;;;;4.00;3.08;;;;;;;;;;5118026;28;20204;-63
2022/08/11 12:02:00;;;;;;;3.88;3.28;;;;;;;;;;5118085;28;20244;-63
2022/08/11 12:04:41;;;;;;;2.70;2.53;;;;;;;;;;5117969;28;20220;-63
2022/08/11 12:09:58;;;;;;;4.03;2.72;;;;;;;;;;5086050;28;20287;-63
2022/08/11 12:15:13;;;;;;;3.28;2.95;;;;;;;;;;5117748;28;20232;-63
2022/08/11 12:17:41;;;;;;;5.80;3.15;;;;;;;;;;5117950;28;20200;-63
2022/08/11 12:20:10;;;;;;;2.90;2.70;;;;;;;;;;5117914;28;20235;-63
2022/08/11 12:28:51;;;;;;;3.13;2.80;;;;;;;;;;5097541;28;20205;-63
2022/08/11 12:31:20;;;;;;;3.50;3.17;;;;;;;;;;5097306;28;20213;-63
2022/08/11 12:33:49;;;;;;;2.92;2.72;;;;;;;;;;5097417;28;20300;-63
2022/08/11 12:36:18;;;;;;;3.85;3.10;;;;;;;;;;5100200;28;20224;-63
2022/08/11 12:38:47;;;;;;;4.13;2.95;;;;;;;;;;5117898;28;20224;-63
2022/08/11 12:46:53;;;;;;;3.47;3.22;;;;;;;;;;5120993;28;20209;-63
2022/08/11 12:52:19;;;;;;;3.33;2.78;;;;;;;;;;5121210;27;20237;-63
2022/08/11 12:54:56;;;;;;;3.65;3.33;;;;;;;;;;5120693;28;20228;-62
2022/08/11 13:05:48;;;;;;;5.68;3.15;;;;;;;;;;5120850;28;20723;-64
2022/08/11 13:08:17;;;;;;;4.55;3.25;;;;;;;;;;5120644;28;20201;-64
2022/08/11 13:13:31;;;;;;;2.90;2.70;;;;;;;;;;5107117;28;20356;-64
2022/08/11 13:16:21;;;;;;;3.00;2.80;;;;;;;;;;5120682;28;20229;-62
2022/08/11 13:18:51;;;;;;;4.85;2.90;;;;;;;;;;5120478;28;20236;-64
2022/08/11 13:21:21;;;;;;;3.22;3.03;;;;;;;;;;5120474;28;20251;-64
2022/08/11 13:23:49;;;;;;;7.47;3.30;;;;;;;;;;5120374;28;20768;-64
2022/08/11 13:26:30;;;;;;;3.88;3.08;;;;;;;;;;5107774;28;20254;-65
2022/08/11 13:29:17;;;;;;;4.40;2.95;;;;;;;;;;5120361;28;20223;-64
2022/08/11 13:31:45;;;;;;;2.92;2.72;;;;;;;;;;5120581;28;20200;-64
2022/08/11 13:34:15;;;;;;;2.90;2.70;;;;;;;;;;5120165;28;20629;-65
2022/08/11 13:36:43;;;;;;;2.95;2.63;;;;;;;;;;5112779;28;20247;-64
2022/08/11 13:39:12;;;;;;;3.13;2.92;;;;;;;;;;5098851;28;20229;-65
2022/08/11 13:41:42;;;;;;;3.47;2.90;;;;;;;;;;5099653;28;20239;-64
2022/08/11 13:44:12;;;;;;;3.22;2.97;;;;;;;;;;5099572;28;20726;-64
2022/08/11 13:46:46;;;;;;;5.55;3.20;;;;;;;;;;5099623;28;20215;-64
2022/08/11 13:49:21;;;;;;;2.83;2.63;;;;;;;;;;5099872;28;20208;-64
2022/08/11 13:51:49;;;;;;;3.22;2.90;;;;;;;;;;5098643;28;20235;-63
2022/08/11 13:54:18;;;;;;;3.40;3.10;;;;;;;;;;5098911;28;20229;-62
2022/08/11 13:56:47;;;;;;;3.60;3.13;;;;;;;;;;5099123;28;20618;-63
2022/08/11 13:59:19;;;;;;;5.45;3.40;;;;;;;;;;5099224;28;20267;-62
2022/08/11 14:01:53;;;;;;;4.28;3.40;;;;;;;;;;5099151;28;20553;-63
2022/08/11 14:04:45;;;;;;;4.63;3.03;;;;;;;;;;5099489;28;20229;-63
2022/08/11 14:07:14;;;;;;;3.67;2.72;;;;;;;;;;5097172;28;20205;-62
2022/08/11 14:09:43;;;;;;;4.55;2.95;;;;;;;;;;5097171;28;20232;-63
2022/08/11 14:15:00;;;;;;;4.60;3.20;;;;;;;;;;5097351;28;20249;-63
2022/08/11 14:17:37;;;;;;;3.15;2.85;;;;;;;;;;5097234;28;20690;-63
2022/08/11 14:20:17;;;;;;;2.90;2.65;;;;;;;;;;5118036;27;20228;-63
2022/08/11 14:23:04;;;;;;;3.20;3.00;;;;;;;;;;5119108;28;20594;-63
2022/08/11 14:25:32;;;;;;;3.58;3.30;;;;;;;;;;5106114;28;20213;-65
2022/08/11 14:28:20;;;;;;;5.22;3.25;;;;;;;;;;5098867;28;20664;-63
2022/08/11 14:31:04;;;;;;;8.60;3.42;;;;;;;;;;5098695;28;20251;-65
2022/08/11 14:33:32;;;;;;;4.80;2.95;;;;;;;;;;5098623;28;20261;-62
2022/08/11 14:36:22;;;;;;;2.90;2.70;;;;;;;;;;5101985;28;20192;-62
2022/08/11 14:38:52;;;;;;;2.97;2.78;;;;;;;;;;5118766;28;20287;-64
2022/08/11 14:47:18;;;;;;;4.53;2.88;;;;;;;;;;5116787;28;20239;-64
2022/08/11 14:49:53;;;;;;;5.40;3.05;;;;;;;;;;5118913;28;20228;-63
2022/08/11 14:52:39;;;;;;;3.45;2.80;;;;;;;;;;5119152;28;20263;-64
2022/08/11 14:57:55;;;;;;;3.40;3.20;;;;;;;;;;5118964;28;20235;-64
2022/08/11 15:00:24;;;;;;;3.13;2.92;;;;;;;;;;5118685;28;20283;-64
2022/08/11 15:03:11;;;;;;;3.63;3.33;;;;;;;;;;5118426;28;20247;-63
2022/08/11 15:05:42;;;;;;;3.72;3.13;;;;;;;;;;5118730;28;20257;-63
2022/08/11 15:12:07;;;;;;;4.28;3.97;;;;;;;;;;5117732;28;20655;-63
2022/08/11 15:13:59;;;;;;;4.32;3.90;;;;;;;;;;5118490;28;20247;-63
2022/08/11 15:19:13;;;;;;;4.07;2.67;;;;;;;;;;5118276;28;20212;-65
2022/08/11 15:24:29;;;;;;;5.03;3.60;;;;;;;;;;5114595;28;20274;-65
2022/08/11 15:38:06;;;;;;;4.55;2.97;;;;;;;;;;5116016;28;20564;-65
2022/08/11 15:46:14;;;;;;;3.15;2.95;;;;;;;;;;5118269;28;20232;-64
2022/08/11 15:48:45;;;;;;;3.67;3.33;;;;;;;;;;5118226;28;20216;-64
2022/08/11 15:51:16;;;;;;;3.30;3.00;;;;;;;;;;5117975;28;20703;-65
2022/08/11 15:53:53;;;;;;;3.40;2.80;;;;;;;;;;5117858;28;20228;-63
2022/08/11 15:56:26;;;;;;;3.83;2.83;;;;;;;;;;5117894;28;20211;-63
2022/08/11 16:04:58;;;;;;;3.17;2.47;;;;;;;;;;5118088;28;20228;-63
2022/08/11 16:07:27;;;;;;;3.50;2.78;;;;;;;;;;5116950;28;20251;-64
2022/08/11 16:09:58;;;;;;;3.50;2.95;;;;;;;;;;5115471;28;20261;-64
2022/08/11 16:12:30;;;;;;;3.50;3.20;;;;;;;;;;5117617;28;20201;-64
2022/08/11 16:17:48;;;;;;;3.92;3.00;;;;;;;;;;5118514;28;20258;-64
2022/08/11 16:20:19;;;;;;;5.07;3.03;;;;;;;;;;5121657;28;20263;-65
2022/08/11 16:22:48;;;;;;;3.90;3.25;;;;;;;;;;5120379;28;20205;-64
2022/08/11 16:25:29;;;;;;;3.40;3.15;;;;;;;;;;5113496;28;20204;-64
2022/08/11 16:28:20;;;;;;;4.45;3.13;;;;;;;;;;5121451;28;20571;-63
2022/08/11 16:30:48;;;;;;;3.47;3.17;;;;;;;;;;5121246;28;20345;-64
2022/08/11 16:33:16;;;;;;;4.03;3.60;;;;;;;;;;5121158;28;20738;-63
2022/08/11 16:38:50;;;;;;;3.15;2.95;;;;;;;;;;5105597;28;20201;-64
2022/08/11 16:46:58;;;;;;;5.28;3.78;;;;;;;;;;5100879;28;20267;-64
2022/08/11 16:47:05;;;;;;;2.90;2.70;;;;;;;;;;5100671;28;20285;-64
2022/08/11 16:49:34;;;;;;;4.07;3.35;;;;;;;;;;5100906;28;20205;-64
2022/08/11 16:52:04;;;;;;;3.90;2.85;;;;;;;;;;5100602;28;20608;-64
2022/08/11 16:54:32;;;;;;;4.47;2.97;;;;;;;;;;5100591;28;20225;-64
2022/08/11 16:59:12;;;;;;;2.85;2.65;;;;;;;;;;5100689;28;20209;-64
2022/08/11 16:59:53;;;;;;;4.30;3.47;;;;;;;;;;5100597;28;20668;-64
2022/08/11 17:13:35;;;;;;;3.92;2.60;;;;;;;;;;5120818;28;20263;-63
2022/08/11 17:16:07;;;;;;;3.17;2.88;;;;;;;;;;5120306;28;20238;-63
2022/08/11 17:18:41;;;;;;;3.10;2.90;;;;;;;;;;5120509;28;20284;-63
2022/08/11 17:21:12;;;;;;;3.47;2.72;;;;;;;;;;5120614;28;20262;-63
2022/08/11 17:23:49;;;;;;;3.80;3.42;;;;;;;;;;5120200;28;20711;-62
2022/08/11 17:26:19;;;;;;;3.22;2.90;;;;;;;;;;5099891;28;20209;-63
2022/08/11 17:28:50;;;;;;;4.55;2.55;;;;;;;;;;5100399;28;20232;-64
2022/08/11 17:36:53;;;;;;;4.43;2.78;;;;;;;;;;5107820;28;20204;-63
2022/08/11 17:39:22;;;;;;;2.90;2.70;;;;;;;;;;5108589;27;20233;-63
2022/08/11 17:50:11;;;;;;;3.58;2.70;;;;;;;;;;5119813;28;20304;-64
2022/08/11 18:01:06;;;;;;;6.55;2.65;;;;;;;;;;5119775;28;20266;-63
2022/08/11 18:03:39;;;;;;;2.97;2.70;;;;;;;;;;5119330;28;20269;-62
2022/08/11 18:06:08;;;;;;;2.72;2.53;;;;;;;;;;5119622;28;20211;-62
